Time;durP1;ratioP1;P1;durP2;ratioP2;P2;SDS_P1;SDS_P2;PMS_P1;PMS_P2;Temp;Humidity;BMP_temperature;BMP_pressure;BME280_temperature;BME280_humidity;BME280_pressure;Samples;Min_cycle;Max_cycle;Signal;HPM_P1;HPM_P2
2022/10/09 00:01:21;;;;;;;16.52;4.82;;;;;;;;;;4935183;28;88730;-76
2022/10/09 00:03:48;;;;;;;9.85;4.78;;;;;;;;;;4940761;28;89157;-76
2022/10/09 00:06:16;;;;;;;8.80;4.70;;;;;;;;;;4930136;28;89778;-76
2022/10/09 00:08:43;;;;;;;11.60;4.57;;;;;;;;;;4934120;28;89481;-76
2022/10/09 00:11:10;;;;;;;11.02;4.53;;;;;;;;;;4950819;28;89567;-76
2022/10/09 00:13:37;;;;;;;13.50;4.85;;;;;;;;;;4937235;28;88300;-77
2022/10/09 00:16:04;;;;;;;10.15;4.60;;;;;;;;;;4933260;28;89350;-77
2022/10/09 00:18:31;;;;;;;13.02;4.50;;;;;;;;;;4935044;28;89004;-77
2022/10/09 00:20:58;;;;;;;12.68;4.70;;;;;;;;;;4940046;28;88039;-77
2022/10/09 00:23:24;;;;;;;13.15;5.18;;;;;;;;;;4934012;28;89114;-77
2022/10/09 00:25:52;;;;;;;10.05;4.57;;;;;;;;;;4940241;28;88998;-76
2022/10/09 00:28:19;;;;;;;16.40;5.22;;;;;;;;;;4948393;28;88830;-76
2022/10/09 00:30:45;;;;;;;11.88;5.78;;;;;;;;;;4936499;28;92888;-76
2022/10/09 00:33:12;;;;;;;14.20;5.70;;;;;;;;;;4940104;28;90502;-76
2022/10/09 00:35:38;;;;;;;9.85;5.07;;;;;;;;;;4940090;28;89150;-77
2022/10/09 00:38:05;;;;;;;11.45;5.00;;;;;;;;;;4936863;28;89011;-77
2022/10/09 00:40:32;;;;;;;14.15;5.82;;;;;;;;;;4924821;28;88997;-76
2022/10/09 00:42:58;;;;;;;17.38;5.78;;;;;;;;;;4938930;28;89139;-76
2022/10/09 00:45:25;;;;;;;23.38;5.97;;;;;;;;;;4939173;28;89391;-76
2022/10/09 00:47:56;;;;;;;10.95;5.60;;;;;;;;;;4942477;28;88394;-76
2022/10/09 00:50:25;;;;;;;11.60;5.82;;;;;;;;;;4939351;28;89289;-76
2022/10/09 00:52:53;;;;;;;13.20;5.13;;;;;;;;;;4938699;28;88742;-76
2022/10/09 00:55:20;;;;;;;11.30;4.60;;;;;;;;;;4937948;28;91813;-76
2022/10/09 00:57:46;;;;;;;11.48;5.07;;;;;;;;;;4934633;28;90023;-76
2022/10/09 01:00:13;;;;;;;16.88;4.90;;;;;;;;;;4937013;28;88553;-77
2022/10/09 01:02:39;;;;;;;13.13;4.75;;;;;;;;;;4939211;28;89725;-76
2022/10/09 01:05:07;;;;;;;15.75;4.43;;;;;;;;;;4949634;28;89148;-76
2022/10/09 01:07:56;;;;;;;10.45;4.75;;;;;;;;;;4939425;28;88858;-76
2022/10/09 01:10:29;;;;;;;7.45;4.50;;;;;;;;;;4951945;28;89288;-77
2022/10/09 01:13:11;;;;;;;8.77;4.28;;;;;;;;;;4937100;28;91086;-76
2022/10/09 01:15:38;;;;;;;16.35;5.07;;;;;;;;;;4934493;28;88303;-76
2022/10/09 01:18:04;;;;;;;9.75;4.50;;;;;;;;;;4939015;28;94032;-77
2022/10/09 01:20:33;;;;;;;11.63;4.90;;;;;;;;;;4936905;28;88770;-76
2022/10/09 01:23:18;;;;;;;9.15;3.97;;;;;;;;;;4937958;28;90544;-77
2022/10/09 01:25:52;;;;;;;8.13;3.83;;;;;;;;;;4936963;28;88066;-76
2022/10/09 01:28:19;;;;;;;9.80;4.45;;;;;;;;;;4937264;28;88068;-76
2022/10/09 01:30:46;;;;;;;11.55;4.13;;;;;;;;;;4955513;28;89236;-76
2022/10/09 01:33:13;;;;;;;10.57;5.35;;;;;;;;;;4937005;28;89242;-76
2022/10/09 01:35:41;;;;;;;10.15;4.72;;;;;;;;;;4936479;28;88800;-76
2022/10/09 01:38:07;;;;;;;9.23;4.28;;;;;;;;;;4938060;28;89334;-76
2022/10/09 01:40:34;;;;;;;13.48;4.70;;;;;;;;;;4939688;28;88060;-76
2022/10/09 01:43:01;;;;;;;15.70;4.88;;;;;;;;;;4937995;28;88770;-76
2022/10/09 01:45:36;;;;;;;9.60;4.47;;;;;;;;;;4949423;28;89762;-76
2022/10/09 01:48:02;;;;;;;8.52;3.95;;;;;;;;;;4939188;28;88056;-76
2022/10/09 01:50:31;;;;;;;8.95;4.53;;;;;;;;;;4938809;28;88804;-76
2022/10/09 01:52:57;;;;;;;9.82;4.47;;;;;;;;;;4941611;28;89994;-76
2022/10/09 01:55:30;;;;;;;12.63;4.90;;;;;;;;;;4934459;28;88775;-76
2022/10/09 01:58:14;;;;;;;13.98;4.70;;;;;;;;;;4932807;28;90175;-76
2022/10/09 02:00:43;;;;;;;10.13;4.20;;;;;;;;;;4934336;28;88094;-76
2022/10/09 02:03:11;;;;;;;8.40;4.35;;;;;;;;;;4938551;28;88792;-76
2022/10/09 02:05:37;;;;;;;15.32;4.10;;;;;;;;;;4934668;28;89155;-76
2022/10/09 02:08:04;;;;;;;11.68;4.80;;;;;;;;;;4932631;28;88104;-76
2022/10/09 02:10:32;;;;;;;8.07;3.75;;;;;;;;;;4937561;28;88975;-76
2022/10/09 02:12:59;;;;;;;9.02;4.32;;;;;;;;;;4936223;28;90256;-76
2022/10/09 02:15:38;;;;;;;7.93;4.18;;;;;;;;;;4939411;28;88004;-76
2022/10/09 02:18:08;;;;;;;15.48;4.97;;;;;;;;;;4939049;28;89350;-77
2022/10/09 02:20:35;;;;;;;9.43;4.43;;;;;;;;;;4935352;28;88281;-76
2022/10/09 02:23:05;;;;;;;14.23;4.80;;;;;;;;;;4936053;28;90233;-76
2022/10/09 02:25:31;;;;;;;10.52;4.63;;;;;;;;;;4936752;28;89389;-76
2022/10/09 02:27:58;;;;;;;8.20;4.55;;;;;;;;;;4938214;28;87510;-76
2022/10/09 02:30:25;;;;;;;11.90;4.22;;;;;;;;;;4938276;28;88066;-76
2022/10/09 02:32:52;;;;;;;7.82;4.28;;;;;;;;;;4938340;28;89136;-76
2022/10/09 02:35:19;;;;;;;12.32;5.30;;;;;;;;;;4937269;28;90322;-76
2022/10/09 02:37:45;;;;;;;17.02;4.85;;;;;;;;;;4938948;28;89506;-76
2022/10/09 02:40:12;;;;;;;10.13;5.00;;;;;;;;;;4919579;28;88085;-76
2022/10/09 02:42:38;;;;;;;8.60;4.00;;;;;;;;;;4929337;28;88188;-76
2022/10/09 02:45:05;;;;;;;9.23;4.25;;;;;;;;;;4937087;28;89041;-76
2022/10/09 02:47:31;;;;;;;10.40;3.85;;;;;;;;;;4952679;28;88149;-76
2022/10/09 02:49:57;;;;;;;10.60;4.80;;;;;;;;;;4938470;28;89099;-76
2022/10/09 02:52:23;;;;;;;6.72;3.92;;;;;;;;;;4939431;28;88252;-76
2022/10/09 02:54:50;;;;;;;10.40;4.00;;;;;;;;;;4938012;28;88168;-76
2022/10/09 02:57:16;;;;;;;7.88;4.18;;;;;;;;;;4940020;28;88819;-76
2022/10/09 02:59:42;;;;;;;7.72;3.88;;;;;;;;;;4936391;28;90393;-76
2022/10/09 03:02:08;;;;;;;8.80;4.30;;;;;;;;;;4937498;28;89824;-76
2022/10/09 03:04:35;;;;;;;11.13;4.65;;;;;;;;;;4937818;28;88961;-76
2022/10/09 03:07:02;;;;;;;13.10;4.03;;;;;;;;;;4936855;28;88109;-76
2022/10/09 03:09:28;;;;;;;11.15;3.92;;;;;;;;;;4934959;28;89808;-76
2022/10/09 03:11:58;;;;;;;;;;;;;;;;;;4937881;28;88941;-76
2022/10/09 03:14:25;;;;;;;8.55;3.78;;;;;;;;;;4937800;28;118597;-76
2022/10/09 03:16:51;;;;;;;8.88;4.20;;;;;;;;;;4936486;28;88852;-77
2022/10/09 03:19:17;;;;;;;9.13;3.83;;;;;;;;;;4938476;28;89634;-76
2022/10/09 03:21:44;;;;;;;9.75;3.95;;;;;;;;;;4937663;28;90307;-76
2022/10/09 03:24:10;;;;;;;9.70;4.10;;;;;;;;;;4937023;28;92531;-76
2022/10/09 03:26:36;;;;;;;5.78;3.60;;;;;;;;;;4932823;28;88221;-76
2022/10/09 03:29:02;;;;;;;9.43;4.22;;;;;;;;;;4935858;28;88749;-76
2022/10/09 03:31:29;;;;;;;8.52;3.70;;;;;;;;;;4924715;28;89407;-76
2022/10/09 03:34:16;;;;;;;7.75;4.30;;;;;;;;;;4928114;28;88133;-76
2022/10/09 03:36:42;;;;;;;7.20;3.42;;;;;;;;;;4933703;28;89042;-76
2022/10/09 03:39:08;;;;;;;8.32;3.58;;;;;;;;;;4936472;28;89302;-76
2022/10/09 03:41:35;;;;;;;9.40;3.55;;;;;;;;;;4955737;28;90837;-77
2022/10/09 03:44:01;;;;;;;7.15;3.75;;;;;;;;;;4937161;28;89366;-77
2022/10/09 03:46:27;;;;;;;7.95;3.00;;;;;;;;;;4934399;28;89512;-77
2022/10/09 03:48:54;;;;;;;8.07;3.67;;;;;;;;;;4936474;28;88850;-77
2022/10/09 03:51:20;;;;;;;9.07;3.45;;;;;;;;;;4935955;28;89002;-76
2022/10/09 03:53:46;;;;;;;3.78;3.00;;;;;;;;;;4937954;28;88032;-77
2022/10/09 03:56:12;;;;;;;5.47;3.38;;;;;;;;;;4935543;28;89245;-77
2022/10/09 03:58:39;;;;;;;4.63;3.20;;;;;;;;;;4940502;28;89275;-76
2022/10/09 04:01:05;;;;;;;6.50;2.92;;;;;;;;;;4939583;28;89452;-77
2022/10/09 04:03:31;;;;;;;6.07;3.17;;;;;;;;;;4942085;28;89029;-77
2022/10/09 04:05:58;;;;;;;8.18;3.22;;;;;;;;;;4954530;28;88187;-76
2022/10/09 04:08:24;;;;;;;7.53;3.30;;;;;;;;;;4933714;28;89596;-76
2022/10/09 04:10:57;;;;;;;7.07;2.50;;;;;;;;;;4940632;28;89007;-76
2022/10/09 04:13:23;;;;;;;3.53;2.50;;;;;;;;;;4935623;28;89666;-75
2022/10/09 04:15:50;;;;;;;9.40;2.80;;;;;;;;;;4940118;28;92967;-76
2022/10/09 04:18:17;;;;;;;6.95;2.65;;;;;;;;;;4935390;28;89680;-75
2022/10/09 04:20:47;;;;;;;12.50;2.53;;;;;;;;;;4953894;28;88179;-75
2022/10/09 04:23:13;;;;;;;7.30;3.78;;;;;;;;;;4939902;28;90292;-76
2022/10/09 04:25:39;;;;;;;3.97;2.25;;;;;;;;;;4942305;28;88997;-76
2022/10/09 04:28:06;;;;;;;13.43;2.50;;;;;;;;;;4938866;28;89892;-76
2022/10/09 04:30:32;;;;;;;7.47;3.20;;;;;;;;;;4939131;28;88334;-75
2022/10/09 04:32:58;;;;;;;4.65;2.80;;;;;;;;;;4938272;28;89478;-75
2022/10/09 04:35:24;;;;;;;9.23;3.03;;;;;;;;;;4938179;28;90989;-76
2022/10/09 04:37:51;;;;;;;9.73;2.78;;;;;;;;;;4934664;28;91642;-76
2022/10/09 04:40:17;;;;;;;7.07;2.70;;;;;;;;;;4937798;28;88940;-76
2022/10/09 04:42:43;;;;;;;4.20;2.58;;;;;;;;;;4936442;28;89045;-75
2022/10/09 04:45:10;;;;;;;4.78;2.55;;;;;;;;;;4938243;28;89087;-75
2022/10/09 04:47:36;;;;;;;12.20;3.17;;;;;;;;;;4941737;28;88068;-75
2022/10/09 04:50:02;;;;;;;8.52;2.88;;;;;;;;;;4938650;28;89347;-75
2022/10/09 04:52:28;;;;;;;6.35;3.30;;;;;;;;;;4954928;28;88001;-75
2022/10/09 04:54:55;;;;;;;4.00;3.00;;;;;;;;;;4938393;28;88743;-76
2022/10/09 04:57:21;;;;;;;8.80;3.17;;;;;;;;;;4938444;28;89060;-75
2022/10/09 04:59:47;;;;;;;12.40;3.10;;;;;;;;;;4938677;28;88865;-75
2022/10/09 05:02:14;;;;;;;15.77;3.35;;;;;;;;;;4938141;28;89165;-76
2022/10/09 05:04:40;;;;;;;13.65;3.38;;;;;;;;;;4937148;28;88891;-76
2022/10/09 05:07:06;;;;;;;6.18;3.30;;;;;;;;;;4941014;28;88659;-75
2022/10/09 05:09:32;;;;;;;6.97;2.90;;;;;;;;;;4939626;28;89037;-76
2022/10/09 05:11:59;;;;;;;16.27;4.10;;;;;;;;;;4938010;28;88800;-75
2022/10/09 05:14:25;;;;;;;14.13;3.72;;;;;;;;;;4938692;28;88729;-75
2022/10/09 05:16:51;;;;;;;4.97;3.22;;;;;;;;;;4929946;28;89044;-75
2022/10/09 05:19:38;;;;;;;6.43;3.15;;;;;;;;;;4934642;28;87698;-76
2022/10/09 05:22:04;;;;;;;6.10;3.63;;;;;;;;;;4939107;28;88004;-75
2022/10/09 05:24:30;;;;;;;10.07;3.72;;;;;;;;;;4939926;28;88953;-75
2022/10/09 05:26:57;;;;;;;17.27;4.13;;;;;;;;;;4937425;28;88799;-75
2022/10/09 05:29:23;;;;;;;11.93;4.70;;;;;;;;;;4941604;28;89481;-75
2022/10/09 05:31:49;;;;;;;12.00;5.88;;;;;;;;;;4939786;28;90920;-75
2022/10/09 05:34:16;;;;;;;10.68;5.93;;;;;;;;;;4939272;28;88782;-75
2022/10/09 05:36:42;;;;;;;15.00;5.93;;;;;;;;;;4938800;28;89123;-75
2022/10/09 05:39:08;;;;;;;16.05;6.13;;;;;;;;;;4939039;28;88047;-75
2022/10/09 05:41:35;;;;;;;10.25;5.40;;;;;;;;;;4938294;28;88815;-75
2022/10/09 05:44:01;;;;;;;14.45;3.67;;;;;;;;;;4939263;28;89629;-75
2022/10/09 05:46:29;;;;;;;8.43;3.58;;;;;;;;;;4930983;28;88469;-79
2022/10/09 05:48:57;;;;;;;14.65;4.05;;;;;;;;;;4939117;28;89686;-76
2022/10/09 05:51:28;;;;;;;10.65;3.88;;;;;;;;;;4940436;28;90124;-76
2022/10/09 05:53:54;;;;;;;10.43;4.47;;;;;;;;;;4938802;28;89824;-76
2022/10/09 05:56:20;;;;;;;7.95;4.57;;;;;;;;;;4938675;28;89091;-76
2022/10/09 05:58:54;;;;;;;8.93;4.28;;;;;;;;;;4938119;28;87938;-76
2022/10/09 06:01:21;;;;;;;10.88;4.65;;;;;;;;;;4938481;28;88779;-76
2022/10/09 06:03:49;;;;;;;10.82;4.03;;;;;;;;;;4939461;28;89155;-76
2022/10/09 06:06:16;;;;;;;8.15;3.92;;;;;;;;;;4937347;28;89478;-76
2022/10/09 06:08:43;;;;;;;10.38;3.97;;;;;;;;;;4938414;28;87737;-76
2022/10/09 06:11:12;;;;;;;7.10;4.07;;;;;;;;;;4952346;28;88938;-76
2022/10/09 06:13:39;;;;;;;8.75;4.35;;;;;;;;;;4941634;28;88171;-76
2022/10/09 06:16:05;;;;;;;20.00;4.18;;;;;;;;;;4928858;28;91916;-76
2022/10/09 06:18:32;;;;;;;9.07;4.53;;;;;;;;;;4934676;28;88093;-76
2022/10/09 06:21:00;;;;;;;12.45;4.78;;;;;;;;;;4937129;28;89038;-76
2022/10/09 06:23:27;;;;;;;7.13;3.92;;;;;;;;;;4937094;28;89479;-75
2022/10/09 06:25:55;;;;;;;8.65;4.63;;;;;;;;;;4935158;28;88248;-76
2022/10/09 06:28:21;;;;;;;7.70;4.30;;;;;;;;;;4937945;28;89093;-72
2022/10/09 06:30:48;;;;;;;9.45;4.32;;;;;;;;;;4935774;28;89570;-71
2022/10/09 06:33:15;;;;;;;10.93;4.15;;;;;;;;;;4939087;28;87298;-72
2022/10/09 06:35:41;;;;;;;10.38;4.07;;;;;;;;;;4939984;28;89071;-72
2022/10/09 06:38:07;;;;;;;11.65;3.72;;;;;;;;;;4936302;28;89901;-72
2022/10/09 06:40:35;;;;;;;7.63;4.53;;;;;;;;;;4936801;28;88762;-72
2022/10/09 06:43:02;;;;;;;12.80;5.15;;;;;;;;;;4935125;28;88996;-78
2022/10/09 06:45:28;;;;;;;10.77;5.00;;;;;;;;;;4930905;28;88400;-73
2022/10/09 06:47:54;;;;;;;14.40;5.65;;;;;;;;;;4929965;28;89239;-74
2022/10/09 06:50:21;;;;;;;14.20;5.88;;;;;;;;;;4937418;28;90034;-73
2022/10/09 06:52:47;;;;;;;15.77;6.75;;;;;;;;;;4938955;28;88223;-74
2022/10/09 06:55:14;;;;;;;16.67;7.13;;;;;;;;;;4938082;28;88692;-74
2022/10/09 06:57:40;;;;;;;12.25;5.97;;;;;;;;;;4942443;28;88304;-73
2022/10/09 07:00:07;;;;;;;11.65;5.40;;;;;;;;;;4929370;28;88102;-73
2022/10/09 07:02:33;;;;;;;16.73;6.72;;;;;;;;;;4953468;28;88987;-72
2022/10/09 07:05:00;;;;;;;15.15;5.65;;;;;;;;;;4937664;28;88764;-74
2022/10/09 07:07:26;;;;;;;11.15;5.43;;;;;;;;;;4936827;28;89784;-75
2022/10/09 07:09:53;;;;;;;11.27;4.97;;;;;;;;;;4946119;28;88908;-74
2022/10/09 07:12:19;;;;;;;11.50;5.18;;;;;;;;;;4934287;28;89860;-74
2022/10/09 07:14:45;;;;;;;17.83;7.68;;;;;;;;;;4950917;28;88797;-75
2022/10/09 12:55:14;;;;;;;7.57;2.88;;;;;;;;;;5023906;28;88295;-76
2022/10/09 12:57:40;;;;;;;8.65;2.97;;;;;;;;;;5019507;28;86905;-76
2022/10/09 13:00:07;;;;;;;6.28;2.70;;;;;;;;;;5032345;27;87280;-75
2022/10/09 13:02:33;;;;;;;8.88;2.85;;;;;;;;;;5033343;28;87522;-74
2022/10/09 13:05:01;;;;;;;8.65;2.88;;;;;;;;;;5017346;27;88434;-75
2022/10/09 13:07:28;;;;;;;8.18;2.70;;;;;;;;;;5013710;28;87782;-74
2022/10/09 13:09:58;;;;;;;12.23;5.15;;;;;;;;;;5015066;28;87582;-77
2022/10/09 13:12:25;;;;;;;8.38;3.13;;;;;;;;;;5015825;28;88255;-78
2022/10/09 13:14:56;;;;;;;7.85;3.17;;;;;;;;;;5021918;28;87412;-78
2022/10/09 13:17:34;;;;;;;9.70;3.50;;;;;;;;;;5016986;28;87875;-77
2022/10/09 13:20:15;;;;;;;6.00;3.28;;;;;;;;;;5019754;28;87385;-76
2022/10/09 13:22:55;;;;;;;9.32;2.63;;;;;;;;;;5031470;28;88510;-79
2022/10/09 13:25:21;;;;;;;;;;;;;;;;;;5030579;28;87992;-75
2022/10/09 13:27:47;;;;;;;8.25;2.88;;;;;;;;;;5034395;28;117488;-80
2022/10/09 13:30:14;;;;;;;6.10;3.50;;;;;;;;;;5028398;28;87578;-78
2022/10/09 13:32:40;;;;;;;11.85;3.33;;;;;;;;;;5018769;28;87804;-77
2022/10/09 13:35:07;;;;;;;14.32;4.13;;;;;;;;;;5013759;28;88615;-75
2022/10/09 13:37:33;;;;;;;11.52;3.00;;;;;;;;;;5016544;28;87547;-76
2022/10/09 13:39:59;;;;;;;10.45;3.15;;;;;;;;;;5027900;28;88601;-76
2022/10/09 13:42:31;;;;;;;12.25;2.97;;;;;;;;;;5013866;28;89562;-76
2022/10/09 13:44:57;;;;;;;10.32;3.33;;;;;;;;;;5017910;27;87201;-75
2022/10/09 13:47:23;;;;;;;9.65;2.88;;;;;;;;;;5015109;28;88353;-76
2022/10/09 13:49:50;;;;;;;7.25;3.38;;;;;;;;;;5029731;28;87516;-76
2022/10/09 13:52:16;;;;;;;12.75;3.53;;;;;;;;;;5033416;28;87790;-77
2022/10/09 13:54:42;;;;;;;8.40;3.20;;;;;;;;;;5034138;28;87351;-77
2022/10/09 13:57:09;;;;;;;12.05;2.97;;;;;;;;;;5025785;28;86823;-76
2022/10/09 13:59:36;;;;;;;5.32;2.30;;;;;;;;;;5019917;27;87859;-77
2022/10/09 14:02:03;;;;;;;9.52;2.65;;;;;;;;;;5013429;28;87847;-77
2022/10/09 14:04:29;;;;;;;6.03;2.70;;;;;;;;;;5022499;28;87879;-76
2022/10/09 14:06:55;;;;;;;8.25;2.63;;;;;;;;;;5019591;28;87281;-76
2022/10/09 14:09:22;;;;;;;9.73;2.75;;;;;;;;;;5006326;28;88067;-76
2022/10/09 14:11:48;;;;;;;6.35;2.55;;;;;;;;;;5010182;28;87901;-75
2022/10/09 14:14:14;;;;;;;8.90;2.80;;;;;;;;;;5004910;28;87259;-75
2022/10/09 14:16:40;;;;;;;6.90;2.90;;;;;;;;;;5018033;28;87548;-75
2022/10/09 14:19:08;;;;;;;10.75;3.05;;;;;;;;;;5009785;28;87709;-76
2022/10/09 14:21:34;;;;;;;6.05;2.35;;;;;;;;;;5016151;28;90627;-78
2022/10/09 14:24:01;;;;;;;9.63;3.00;;;;;;;;;;5009327;28;86796;-73
2022/10/09 14:26:28;;;;;;;11.05;3.50;;;;;;;;;;5001192;28;87358;-74
2022/10/09 14:28:57;;;;;;;12.02;3.03;;;;;;;;;;5017173;28;87709;-74
2022/10/09 14:31:23;;;;;;;11.03;3.37;;;;;;;;;;5018430;28;87845;-74
2022/10/09 14:33:53;;;;;;;11.60;3.05;;;;;;;;;;5014335;28;88726;-73
2022/10/09 14:36:20;;;;;;;7.35;2.85;;;;;;;;;;5000283;28;87799;-74
2022/10/09 14:38:46;;;;;;;10.70;3.10;;;;;;;;;;4999651;28;87868;-73
2022/10/09 14:41:13;;;;;;;9.32;3.28;;;;;;;;;;5009829;28;88384;-73
2022/10/09 14:43:39;;;;;;;9.18;3.58;;;;;;;;;;5011452;28;87470;-76
2022/10/09 14:46:07;;;;;;;11.02;3.53;;;;;;;;;;5009537;28;88356;-76
2022/10/09 14:48:34;;;;;;;12.65;2.83;;;;;;;;;;5020670;28;88611;-75
2022/10/09 14:51:01;;;;;;;30.55;3.95;;;;;;;;;;5019199;28;89939;-76
2022/10/09 14:53:28;;;;;;;15.85;3.05;;;;;;;;;;5010585;28;88426;-75
2022/10/09 14:55:54;;;;;;;9.38;2.65;;;;;;;;;;4999658;28;87497;-75
2022/10/09 14:58:20;;;;;;;10.77;3.33;;;;;;;;;;5004026;28;88173;-73
2022/10/09 15:00:46;;;;;;;10.10;3.17;;;;;;;;;;5014266;28;87121;-74
2022/10/09 15:03:12;;;;;;;11.57;3.10;;;;;;;;;;5013261;28;87818;-73
2022/10/09 15:05:39;;;;;;;10.85;2.97;;;;;;;;;;5022982;28;86609;-74
2022/10/09 15:08:05;;;;;;;9.57;3.20;;;;;;;;;;5004021;28;87201;-73
2022/10/09 15:10:32;;;;;;;12.57;2.50;;;;;;;;;;5014106;28;88225;-73
2022/10/09 15:12:59;;;;;;;8.75;2.65;;;;;;;;;;5010615;28;87356;-73
2022/10/09 15:15:25;;;;;;;8.25;2.50;;;;;;;;;;5011107;28;90684;-73
2022/10/09 15:17:57;;;;;;;7.90;2.45;;;;;;;;;;5015380;27;87706;-73
2022/10/09 15:20:23;;;;;;;8.50;3.08;;;;;;;;;;4995909;28;87408;-72
2022/10/09 15:22:50;;;;;;;8.70;3.00;;;;;;;;;;4999213;28;87846;-69
2022/10/09 15:25:16;;;;;;;9.15;3.20;;;;;;;;;;5001622;28;87909;-70
2022/10/09 15:27:42;;;;;;;9.05;3.13;;;;;;;;;;5001035;28;87629;-69
2022/10/09 15:30:09;;;;;;;7.93;2.65;;;;;;;;;;5000036;28;88987;-69
2022/10/09 15:32:35;;;;;;;4.38;2.30;;;;;;;;;;4999764;28;87535;-70
2022/10/09 15:35:02;;;;;;;7.00;2.50;;;;;;;;;;4997985;28;87491;-70
2022/10/09 15:37:28;;;;;;;10.23;2.30;;;;;;;;;;4997972;28;88200;-70
2022/10/09 15:39:54;;;;;;;6.15;2.20;;;;;;;;;;5007553;28;88829;-70
2022/10/09 15:42:20;;;;;;;8.55;2.53;;;;;;;;;;5004688;28;87516;-69
2022/10/09 15:44:47;;;;;;;5.05;2.50;;;;;;;;;;4999158;28;88120;-69
2022/10/09 15:47:13;;;;;;;10.02;2.38;;;;;;;;;;5021981;28;87434;-69
2022/10/09 15:49:45;;;;;;;7.78;2.25;;;;;;;;;;5006851;28;91229;-69
2022/10/09 15:52:17;;;;;;;8.55;1.83;;;;;;;;;;4999841;28;86813;-69
2022/10/09 15:54:44;;;;;;;5.88;1.42;;;;;;;;;;4998756;28;87512;-69
2022/10/09 15:57:10;;;;;;;4.50;1.95;;;;;;;;;;4999358;28;88279;-69
2022/10/09 15:59:40;;;;;;;6.00;2.40;;;;;;;;;;4999382;28;87425;-69
2022/10/09 16:02:07;;;;;;;8.07;2.35;;;;;;;;;;4998000;28;86853;-69
2022/10/09 16:04:34;;;;;;;9.02;2.03;;;;;;;;;;4999357;28;87815;-69
2022/10/09 16:07:00;;;;;;;8.30;2.35;;;;;;;;;;4999293;28;87414;-70
2022/10/09 16:09:30;;;;;;;5.40;1.90;;;;;;;;;;5000748;28;87423;-69
2022/10/09 16:11:56;;;;;;;4.68;1.77;;;;;;;;;;4999141;28;87226;-70
2022/10/09 16:14:26;;;;;;;5.70;2.40;;;;;;;;;;4999505;28;87541;-70
2022/10/09 16:16:52;;;;;;;7.13;2.65;;;;;;;;;;5017446;28;87904;-70
2022/10/09 16:19:18;;;;;;;7.50;2.45;;;;;;;;;;5019212;28;87408;-69
2022/10/09 16:21:45;;;;;;;8.18;2.63;;;;;;;;;;5019046;28;87500;-69
2022/10/09 16:24:11;;;;;;;7.38;3.00;;;;;;;;;;5018952;28;87841;-69
2022/10/09 16:26:37;;;;;;;5.85;3.30;;;;;;;;;;5018976;28;86801;-69
2022/10/09 16:29:03;;;;;;;5.72;3.00;;;;;;;;;;5017827;28;88560;-69
2022/10/09 16:31:33;;;;;;;5.55;3.38;;;;;;;;;;5020436;28;87763;-69
2022/10/09 16:34:00;;;;;;;;;;;;;;;;;;5018071;28;87616;-69
2022/10/09 16:36:27;;;;;;;5.65;2.55;;;;;;;;;;5019450;28;118366;-69
2022/10/09 16:38:54;;;;;;;3.50;2.10;;;;;;;;;;5019416;28;87521;-69
2022/10/09 16:41:21;;;;;;;12.88;2.63;;;;;;;;;;5017379;28;87499;-69
2022/10/09 16:43:52;;;;;;;12.68;2.83;;;;;;;;;;5017273;28;87880;-69
2022/10/09 16:46:28;;;;;;;11.95;3.22;;;;;;;;;;5019342;28;87085;-69
2022/10/09 16:48:55;;;;;;;10.63;3.22;;;;;;;;;;5018747;28;87958;-69
2022/10/09 16:51:23;;;;;;;6.90;3.10;;;;;;;;;;5018305;28;87786;-69
2022/10/09 16:53:50;;;;;;;7.53;3.13;;;;;;;;;;5021209;28;87330;-69
2022/10/09 16:56:18;;;;;;;6.78;3.63;;;;;;;;;;5018290;28;87850;-69
2022/10/09 16:58:45;;;;;;;9.60;3.40;;;;;;;;;;5018433;28;87324;-70
2022/10/09 17:01:11;;;;;;;11.32;4.35;;;;;;;;;;5015971;28;88997;-70
2022/10/09 17:03:39;;;;;;;9.25;3.63;;;;;;;;;;5018132;28;88108;-70
2022/10/09 17:06:13;;;;;;;11.85;3.60;;;;;;;;;;5017574;28;88055;-70
2022/10/09 17:08:40;;;;;;;6.60;3.15;;;;;;;;;;5016997;28;88421;-69
2022/10/09 17:11:07;;;;;;;6.15;2.88;;;;;;;;;;5016673;28;88862;-69
2022/10/09 17:13:34;;;;;;;17.08;3.30;;;;;;;;;;5020523;28;89490;-70
2022/10/09 17:16:03;;;;;;;10.52;3.90;;;;;;;;;;5008339;28;88686;-70
2022/10/09 17:18:29;;;;;;;9.50;3.90;;;;;;;;;;5000470;28;88819;-69
2022/10/09 17:20:55;;;;;;;10.20;3.53;;;;;;;;;;4997314;28;88110;-70
2022/10/09 17:23:22;;;;;;;10.05;4.15;;;;;;;;;;5012953;28;88089;-70
2022/10/09 17:25:48;;;;;;;5.90;3.25;;;;;;;;;;5012653;28;88770;-70
2022/10/09 17:28:14;;;;;;;6.80;3.33;;;;;;;;;;4996437;28;88233;-70
2022/10/09 17:30:41;;;;;;;11.77;3.60;;;;;;;;;;4997611;28;87887;-70
2022/10/09 17:33:07;;;;;;;8.38;2.53;;;;;;;;;;4998113;28;88778;-70
2022/10/09 17:35:37;;;;;;;13.60;3.10;;;;;;;;;;5005925;28;88828;-70
2022/10/09 17:38:03;;;;;;;14.30;3.28;;;;;;;;;;5014488;28;90672;-70
2022/10/09 17:40:30;;;;;;;11.52;2.53;;;;;;;;;;5018228;28;88914;-70
2022/10/09 17:42:56;;;;;;;8.00;2.60;;;;;;;;;;5014336;28;88041;-70
2022/10/09 17:45:22;;;;;;;5.72;2.58;;;;;;;;;;5008222;28;88867;-70
2022/10/09 17:47:48;;;;;;;14.38;2.80;;;;;;;;;;5020293;28;89056;-70
2022/10/09 17:50:15;;;;;;;5.57;3.22;;;;;;;;;;5015927;28;88077;-70
2022/10/09 17:52:41;;;;;;;5.97;3.20;;;;;;;;;;5020381;28;87513;-70
2022/10/09 17:55:07;;;;;;;5.35;2.80;;;;;;;;;;5013861;28;89342;-70
2022/10/09 17:57:34;;;;;;;9.10;3.40;;;;;;;;;;5003384;28;88128;-70
2022/10/09 18:00:00;;;;;;;7.13;3.00;;;;;;;;;;5008954;28;90742;-70
2022/10/09 18:02:26;;;;;;;8.43;3.08;;;;;;;;;;5033921;28;88065;-72
2022/10/09 18:04:56;;;;;;;8.88;2.78;;;;;;;;;;5020925;27;89117;-69
2022/10/09 18:07:22;;;;;;;10.57;3.10;;;;;;;;;;5018827;28;89192;-70
2022/10/09 18:09:49;;;;;;;8.85;2.50;;;;;;;;;;5017586;28;88622;-70
2022/10/09 18:12:15;;;;;;;9.85;3.67;;;;;;;;;;5019815;28;89070;-71
2022/10/09 18:14:42;;;;;;;9.35;3.13;;;;;;;;;;5018924;28;90304;-69
2022/10/09 18:17:08;;;;;;;9.60;3.42;;;;;;;;;;5020899;28;87750;-70
2022/10/09 18:19:34;;;;;;;9.93;3.38;;;;;;;;;;5015146;28;88186;-69
2022/10/09 18:22:00;;;;;;;8.50;3.10;;;;;;;;;;5018188;28;88182;-70
2022/10/09 18:24:27;;;;;;;8.45;3.45;;;;;;;;;;5018358;28;89183;-69
2022/10/09 18:26:53;;;;;;;14.80;3.42;;;;;;;;;;5019740;28;89381;-70
2022/10/09 18:29:19;;;;;;;7.97;3.05;;;;;;;;;;5010115;28;88296;-69
2022/10/09 18:31:45;;;;;;;9.57;3.15;;;;;;;;;;4999865;28;89049;-70
2022/10/09 18:34:12;;;;;;;10.55;3.30;;;;;;;;;;5008053;28;92674;-70
2022/10/09 18:36:38;;;;;;;6.45;3.42;;;;;;;;;;5018008;28;88083;-70
2022/10/09 18:39:08;;;;;;;13.38;3.75;;;;;;;;;;5012125;28;88652;-70
2022/10/09 18:41:34;;;;;;;;;;;;;;;;;;5002993;28;88275;-69
2022/10/09 18:44:01;;;;;;;7.63;3.45;;;;;;;;;;5007993;28;116488;-70
2022/10/09 18:46:33;;;;;;;5.25;3.13;;;;;;;;;;5032305;28;88991;-69
2022/10/09 18:48:59;;;;;;;5.25;3.10;;;;;;;;;;5026714;28;89106;-70
2022/10/09 18:51:26;;;;;;;7.28;3.38;;;;;;;;;;5019409;28;89521;-70
2022/10/09 18:53:58;;;;;;;12.00;3.90;;;;;;;;;;5018189;28;88981;-69
2022/10/09 18:56:25;;;;;;;11.85;3.72;;;;;;;;;;5019147;28;88209;-69
2022/10/09 18:58:51;;;;;;;9.60;3.72;;;;;;;;;;5012932;28;88609;-69
2022/10/09 19:01:17;;;;;;;11.13;3.42;;;;;;;;;;4999120;28;89170;-70
2022/10/09 19:03:44;;;;;;;7.63;3.35;;;;;;;;;;5001322;28;88096;-70
2022/10/09 19:06:15;;;;;;;8.35;3.30;;;;;;;;;;5008548;28;88274;-69
2022/10/09 19:08:42;;;;;;;7.32;3.45;;;;;;;;;;5014532;28;88012;-70
2022/10/09 19:11:09;;;;;;;9.25;4.65;;;;;;;;;;4999382;28;87958;-69
2022/10/09 19:13:35;;;;;;;12.32;4.40;;;;;;;;;;4998389;28;89764;-69
2022/10/09 19:16:04;;;;;;;7.43;3.75;;;;;;;;;;5012017;28;88488;-69
2022/10/09 19:18:31;;;;;;;9.35;3.70;;;;;;;;;;5014616;28;88704;-69
2022/10/09 19:20:57;;;;;;;7.05;3.83;;;;;;;;;;5005727;28;89505;-69
2022/10/09 19:23:23;;;;;;;9.25;3.60;;;;;;;;;;5001980;28;87981;-69
2022/10/09 19:25:51;;;;;;;12.60;4.47;;;;;;;;;;4998884;28;89009;-69
2022/10/09 19:28:18;;;;;;;5.53;3.78;;;;;;;;;;4997211;28;88048;-69
2022/10/09 19:30:46;;;;;;;12.23;3.70;;;;;;;;;;4999014;28;90114;-70
2022/10/09 19:33:12;;;;;;;10.30;3.70;;;;;;;;;;4997173;28;89010;-70
2022/10/09 19:35:51;;;;;;;7.47;3.88;;;;;;;;;;4998821;28;87971;-70
2022/10/09 19:38:18;;;;;;;7.47;3.45;;;;;;;;;;4999088;28;89063;-70
2022/10/09 19:40:45;;;;;;;6.47;3.10;;;;;;;;;;5018657;28;88986;-69
2022/10/09 19:43:11;;;;;;;10.07;3.38;;;;;;;;;;5018584;28;88050;-69
2022/10/09 19:45:38;;;;;;;10.75;4.50;;;;;;;;;;5019396;28;90910;-69
2022/10/09 19:48:04;;;;;;;13.50;3.75;;;;;;;;;;5018663;28;88319;-69
2022/10/09 19:50:31;;;;;;;6.63;3.30;;;;;;;;;;5013898;28;88009;-69
2022/10/09 19:52:57;;;;;;;6.03;3.80;;;;;;;;;;5014815;28;89310;-69
2022/10/09 19:55:24;;;;;;;8.07;3.50;;;;;;;;;;5013971;28;88642;-69
2022/10/09 19:57:56;;;;;;;6.38;3.60;;;;;;;;;;5018461;28;89368;-71
2022/10/09 20:00:22;;;;;;;9.90;3.00;;;;;;;;;;4998844;28;88931;-72
2022/10/09 20:02:48;;;;;;;12.93;3.65;;;;;;;;;;4997300;28;88882;-72
2022/10/09 20:05:15;;;;;;;8.40;3.53;;;;;;;;;;4997966;28;88427;-71
2022/10/09 20:07:41;;;;;;;11.88;4.20;;;;;;;;;;5011067;28;90042;-71
2022/10/09 20:10:08;;;;;;;9.70;3.40;;;;;;;;;;4995890;28;89679;-73
2022/10/09 20:12:34;;;;;;;15.55;3.65;;;;;;;;;;5008079;28;88996;-71
2022/10/09 20:15:00;;;;;;;8.18;3.80;;;;;;;;;;5014629;28;88036;-71
2022/10/09 20:17:27;;;;;;;15.45;4.22;;;;;;;;;;5005090;28;88772;-70